Gibson, Missouri
Current Conditions -  °F | °C
As of 11:53 PM on Wednesday 28 Jan 2015 (Local Time) from KPOF Reporting Station
Clear Clear  
Wind Chill: 44°   Ceiling: Unl
Heat Index: 47°   Visibility: 10mi
Dew Point: 35°   Wind: 7mph
Humidity: 63%   Direction: 190°S
Pressure: 29.95"   Gusts: NA
Location:  36.44°N, 90.03°W
Report Text: KPOF 290553Z AUTO 19006KT 10SM CLR 08/02 A2995 RMK AO2 SLP145 T00830017 10089 20044 401001017 56023
Loading
Personal Weather Stations






























Interactive Weather Map New forecast layout! Learn more

10-Day Weather Forecast

Advertisements
Track Severe Weather on mobile